createdAt,value
2019-02-04T00:00:54.829Z,1019.96
2019-02-04T00:01:54.792Z,1019.90
2019-02-04T00:02:54.758Z,1019.99
2019-02-04T00:03:54.740Z,1019.94
2019-02-04T00:04:54.674Z,1019.95
2019-02-04T00:05:54.640Z,1019.93
2019-02-04T00:06:54.603Z,1019.91
2019-02-04T00:07:54.566Z,1019.92
2019-02-04T00:08:54.638Z,1019.90
2019-02-04T00:09:54.491Z,1019.92
2019-02-04T00:10:54.451Z,1019.94
2019-02-04T00:11:54.412Z,1019.92
2019-02-04T00:12:54.376Z,1019.95
2019-02-04T00:13:54.360Z,1019.95
2019-02-04T00:14:54.305Z,1019.98
2019-02-04T00:15:54.266Z,1020.00
2019-02-04T00:16:54.223Z,1020.01
2019-02-04T00:17:54.199Z,1020.01
2019-02-04T00:18:54.172Z,1020.00
2019-02-04T00:19:54.106Z,1020.02
2019-02-04T00:20:54.074Z,1020.02
2019-02-04T00:21:54.031Z,1020.02
2019-02-04T00:22:53.996Z,1020.04
2019-02-04T00:23:53.984Z,1020.05
2019-02-04T00:24:53.919Z,1020.06
2019-02-04T00:25:53.884Z,1020.05
2019-02-04T00:26:53.885Z,1020.07
2019-02-04T00:27:53.804Z,1020.07
2019-02-04T00:28:53.811Z,1020.08
2019-02-04T00:29:53.728Z,1020.14
2019-02-04T00:30:53.694Z,1020.09
2019-02-04T00:31:53.655Z,1020.12
2019-02-04T00:32:53.613Z,1020.12
2019-02-04T00:33:53.581Z,1020.11
2019-02-04T00:34:53.570Z,1020.16
2019-02-04T00:35:53.498Z,1020.18
2019-02-04T00:36:53.464Z,1020.17
2019-02-04T00:37:53.430Z,1020.17
2019-02-04T00:38:53.393Z,1020.15
2019-02-04T00:39:53.378Z,1020.14
2019-02-04T00:40:53.313Z,1020.15
2019-02-04T00:41:53.273Z,1020.16
2019-02-04T00:42:53.288Z,1020.16
2019-02-04T00:43:53.197Z,1020.15
2019-02-04T00:44:53.190Z,1020.15
2019-02-04T00:45:53.123Z,1020.19
2019-02-04T00:46:53.082Z,1020.20
2019-02-04T00:47:53.080Z,1020.20
2019-02-04T00:48:53.005Z,1020.23
2019-02-04T00:49:52.993Z,1020.28
2019-02-04T00:50:52.934Z,1020.24
2019-02-04T00:51:52.899Z,1020.27
2019-02-04T00:52:52.876Z,1020.31
2019-02-04T00:53:52.814Z,1020.32
2019-02-04T00:54:52.806Z,1020.30
2019-02-04T00:55:52.750Z,1020.30
2019-02-04T00:56:52.703Z,1020.34
2019-02-04T00:57:52.669Z,1020.37
2019-02-04T00:58:52.628Z,1020.35
2019-02-04T00:59:52.619Z,1020.40
2019-02-04T01:00:52.557Z,1020.36
2019-02-04T01:01:52.509Z,1020.40
2019-02-04T01:02:52.477Z,1020.41
2019-02-04T01:03:52.438Z,1020.42
2019-02-04T01:04:52.427Z,1020.49
2019-02-04T01:05:52.362Z,1020.46
2019-02-04T01:06:52.325Z,1020.47
2019-02-04T01:07:52.284Z,1020.48
2019-02-04T01:08:52.248Z,1020.49
2019-02-04T01:09:52.240Z,1020.49
2019-02-04T01:10:52.171Z,1020.53
2019-02-04T01:11:52.133Z,1020.50
2019-02-04T01:12:52.123Z,1020.57
2019-02-04T01:13:52.069Z,1020.58
2019-02-04T01:14:52.048Z,1020.60
2019-02-04T01:15:51.995Z,1020.65
2019-02-04T01:17:02.978Z,1020.58
2019-02-04T01:17:52.832Z,1020.63
2019-02-04T01:18:51.864Z,1020.64
2019-02-04T01:19:51.853Z,1020.64
2019-02-04T01:20:51.788Z,1020.65
2019-02-04T01:21:51.869Z,1020.63
2019-02-04T01:22:51.725Z,1020.68
2019-02-04T01:23:51.682Z,1020.73
2019-02-04T01:24:51.678Z,1020.69
2019-02-04T01:25:51.603Z,1020.74
2019-02-04T01:26:51.567Z,1020.71
2019-02-04T01:27:51.527Z,1020.74
2019-02-04T01:28:51.485Z,1020.77
2019-02-04T01:29:51.475Z,1020.84
2019-02-04T01:30:51.416Z,1020.82
2019-02-04T01:31:51.379Z,1020.81
2019-02-04T01:32:51.337Z,1020.89
2019-02-04T01:33:51.300Z,1020.88
2019-02-04T01:34:51.289Z,1020.88
2019-02-04T01:35:51.226Z,1020.90
2019-02-04T01:36:51.185Z,1020.94
2019-02-04T01:37:51.144Z,1020.93
2019-02-04T01:38:51.116Z,1020.98
2019-02-04T01:39:51.125Z,1020.99
2019-02-04T01:40:51.036Z,1021.01
2019-02-04T01:41:50.994Z,1020.96
2019-02-04T01:42:50.956Z,1020.94
2019-02-04T01:43:50.923Z,1020.99
2019-02-04T01:44:50.922Z,1021.03
2019-02-04T01:45:50.844Z,1021.09
2019-02-04T01:46:51.666Z,1021.06
2019-02-04T01:47:50.772Z,1021.05
2019-02-04T01:48:50.726Z,1021.06
2019-02-04T01:49:50.700Z,1021.09
2019-02-04T01:50:50.678Z,1021.13
2019-02-04T01:51:50.617Z,1021.14
2019-02-04T01:52:50.675Z,1021.13
2019-02-04T01:53:50.537Z,1021.14
2019-02-04T01:54:50.505Z,1021.17
2019-02-04T01:55:50.486Z,1021.17
2019-02-04T01:56:50.421Z,1021.15
2019-02-04T01:57:50.413Z,1021.21
2019-02-04T01:58:50.348Z,1021.19
2019-02-04T01:59:50.312Z,1021.24
2019-02-04T02:00:50.300Z,1021.26
2019-02-04T02:01:50.232Z,1021.31
2019-02-04T02:02:50.197Z,1021.27
2019-02-04T02:03:50.165Z,1021.27
2019-02-04T02:04:50.120Z,1021.29
2019-02-04T02:05:50.116Z,1021.32
2019-02-04T02:06:50.047Z,1021.31
2019-02-04T02:07:50.006Z,1021.32
2019-02-04T02:08:49.966Z,1021.28
2019-02-04T02:09:49.929Z,1021.34
2019-02-04T02:10:49.916Z,1021.33
2019-02-04T02:11:49.857Z,1021.38
2019-02-04T02:12:49.820Z,1021.36
2019-02-04T02:13:49.780Z,1021.37
2019-02-04T02:14:49.741Z,1021.36
2019-02-04T02:15:49.733Z,1021.38
2019-02-04T02:16:49.668Z,1021.38
2019-02-04T02:17:49.634Z,1021.43
2019-02-04T02:18:49.590Z,1021.42
2019-02-04T02:19:49.559Z,1021.40
2019-02-04T02:20:49.565Z,1021.43
2019-02-04T02:21:49.484Z,1021.41
2019-02-04T02:22:49.439Z,1021.44
2019-02-04T02:23:49.403Z,1021.43
2019-02-04T02:24:49.366Z,1021.47
2019-02-04T02:25:49.356Z,1021.43
2019-02-04T02:26:49.292Z,1021.47
2019-02-04T02:27:49.258Z,1021.48
2019-02-04T02:28:49.210Z,1021.47
2019-02-04T02:29:49.173Z,1021.50
2019-02-04T02:30:49.200Z,1021.53
2019-02-04T02:31:49.101Z,1021.51
2019-02-04T02:32:49.065Z,1021.53
2019-02-04T02:33:49.028Z,1021.56
2019-02-04T02:34:48.986Z,1021.56
2019-02-04T02:35:48.978Z,1021.56
2019-02-04T02:36:48.914Z,1021.58
2019-02-04T02:37:48.874Z,1021.59
2019-02-04T02:38:48.838Z,1021.59
2019-02-04T02:39:48.797Z,1021.60
2019-02-04T02:40:48.787Z,1021.60
2019-02-04T02:41:48.721Z,1021.62
2019-02-04T02:42:48.685Z,1021.58
2019-02-04T02:43:48.653Z,1021.66
2019-02-04T02:44:48.614Z,1021.66
2019-02-04T02:45:48.875Z,1021.68
2019-02-04T02:46:48.543Z,1021.67
2019-02-04T02:47:48.498Z,1021.74
2019-02-04T02:48:48.455Z,1021.78
2019-02-04T02:49:48.420Z,1021.80
2019-02-04T02:50:48.417Z,1021.78
2019-02-04T02:51:48.353Z,1021.80
2019-02-04T02:52:48.302Z,1021.82
2019-02-04T02:53:48.266Z,1021.80
2019-02-04T02:54:48.226Z,1021.80
2019-02-04T02:55:48.196Z,1021.85
2019-02-04T02:56:48.176Z,1021.86
2019-02-04T02:57:48.119Z,1021.87
2019-02-04T02:58:48.077Z,1021.90
2019-02-04T02:59:48.054Z,1021.90
2019-02-04T03:00:47.997Z,1021.92
2019-02-04T03:01:47.984Z,1021.94
2019-02-04T03:02:47.923Z,1021.96
2019-02-04T03:03:47.883Z,1021.98
2019-02-04T03:04:47.878Z,1021.96
2019-02-04T03:05:47.804Z,1022.00
2019-02-04T03:06:47.796Z,1022.00
2019-02-04T03:07:47.735Z,1022.01
2019-02-04T03:08:47.698Z,1022.04
2019-02-04T03:09:47.658Z,1022.03
2019-02-04T03:10:47.625Z,1022.06
2019-02-04T03:11:47.614Z,1022.11
2019-02-04T03:12:47.545Z,1022.13
2019-02-04T03:13:47.503Z,1022.14
2019-02-04T03:14:47.465Z,1022.15
2019-02-04T03:15:47.434Z,1022.14
2019-02-04T03:16:47.420Z,1022.19
2019-02-04T03:17:52.189Z,1022.20
2019-02-04T03:18:47.312Z,1022.20
2019-02-04T03:19:47.274Z,1022.21
2019-02-04T03:20:47.259Z,1022.23
2019-02-04T03:21:47.221Z,1022.27
2019-02-04T03:22:47.164Z,1022.27
2019-02-04T03:23:47.119Z,1022.24
2019-02-04T03:24:47.093Z,1022.28
2019-02-04T03:25:47.049Z,1022.29
2019-02-04T03:26:47.037Z,1022.30
2019-02-04T03:27:46.974Z,1022.30
2019-02-04T03:28:46.934Z,1022.33
2019-02-04T03:29:47.842Z,1022.33
2019-02-04T03:30:46.862Z,1022.35
2019-02-04T03:31:46.859Z,1022.40
2019-02-04T03:32:46.914Z,1022.40
2019-02-04T03:33:46.746Z,1022.40
2019-02-04T03:34:46.706Z,1022.48
2019-02-04T03:35:46.666Z,1022.48
2019-02-04T03:36:46.653Z,1022.48
2019-02-04T03:37:46.591Z,1022.52
2019-02-04T03:38:46.550Z,1022.51
2019-02-04T03:39:46.514Z,1022.55
2019-02-04T03:40:46.480Z,1022.54
2019-02-04T03:41:46.459Z,1022.53
2019-02-04T03:42:46.404Z,1022.55
2019-02-04T03:43:46.365Z,1022.56
2019-02-04T03:44:46.324Z,1022.54
2019-02-04T03:45:46.287Z,1022.55
2019-02-04T03:46:46.272Z,1022.57
2019-02-04T03:47:46.210Z,1022.59
2019-02-04T03:48:46.178Z,1022.60
2019-02-04T03:49:46.138Z,1022.56
2019-02-04T03:50:46.098Z,1022.59
2019-02-04T03:51:46.077Z,1022.62
2019-02-04T03:52:46.018Z,1022.59
2019-02-04T03:53:45.974Z,1022.65
2019-02-04T03:54:45.938Z,1022.65
2019-02-04T03:55:45.896Z,1022.68
2019-02-04T03:56:45.885Z,1022.70
2019-02-04T03:57:45.849Z,1022.74
2019-02-04T03:58:45.788Z,1022.75
2019-02-04T03:59:45.753Z,1022.78
2019-02-04T04:00:45.712Z,1022.78
2019-02-04T04:01:45.755Z,1022.76
2019-02-04T04:02:45.634Z,1022.81
2019-02-04T04:03:45.594Z,1022.79
2019-02-04T04:04:45.557Z,1022.86
2019-02-04T04:05:45.517Z,1022.89
2019-02-04T04:06:45.526Z,1022.90
2019-02-04T04:07:45.444Z,1022.91
2019-02-04T04:08:45.403Z,1022.92
2019-02-04T04:09:45.365Z,1022.95
2019-02-04T04:10:45.328Z,1022.96
2019-02-04T04:11:45.291Z,1022.92
2019-02-04T04:12:45.270Z,1022.90
2019-02-04T04:13:45.209Z,1022.89
2019-02-04T04:14:45.177Z,1022.90
2019-02-04T04:15:45.141Z,1022.93
2019-02-04T04:16:45.111Z,1022.98
2019-02-04T04:17:45.090Z,1022.96
2019-02-04T04:18:45.021Z,1022.97
2019-02-04T04:19:44.983Z,1022.93
2019-02-04T04:20:44.942Z,1022.92
2019-02-04T04:21:44.909Z,1022.92
2019-02-04T04:22:44.895Z,1022.92
2019-02-04T04:23:44.831Z,1023.00
2019-02-04T04:24:44.796Z,1022.98
2019-02-04T04:25:44.757Z,1022.99
2019-02-04T04:26:44.718Z,1023.03
2019-02-04T04:27:44.702Z,1023.01
2019-02-04T04:28:44.637Z,1023.01
2019-02-04T04:29:44.605Z,1023.03
2019-02-04T04:30:44.588Z,1023.03
2019-02-04T04:31:45.343Z,1023.03
2019-02-04T04:32:44.508Z,1023.04
2019-02-04T04:33:44.448Z,1023.02
2019-02-04T04:34:44.419Z,1023.04
2019-02-04T04:35:44.366Z,1023.03
2019-02-04T04:36:44.333Z,1023.03
2019-02-04T04:37:44.323Z,1023.08
2019-02-04T04:38:44.249Z,1023.03
2019-02-04T04:39:44.215Z,1023.02
2019-02-04T04:40:44.234Z,1023.06
2019-02-04T04:41:44.145Z,1023.05
2019-02-04T04:42:44.143Z,1023.09
2019-02-04T04:43:44.063Z,1023.12
2019-02-04T04:44:44.024Z,1023.09
2019-02-04T04:45:43.986Z,1023.07
2019-02-04T04:46:43.947Z,1023.11
2019-02-04T04:47:43.937Z,1023.09
2019-02-04T04:48:43.875Z,1023.10
2019-02-04T04:49:43.847Z,1023.07
2019-02-04T04:50:43.804Z,1023.08
2019-02-04T04:51:43.758Z,1023.10
2019-02-04T04:52:43.738Z,1023.09
2019-02-04T04:53:43.678Z,1023.12
2019-02-04T04:54:43.644Z,1023.13
2019-02-04T04:55:43.601Z,1023.10
2019-02-04T04:56:43.561Z,1023.16
2019-02-04T04:57:43.593Z,1023.13
2019-02-04T04:58:43.510Z,1023.17
2019-02-04T04:59:43.450Z,1023.16
2019-02-04T05:00:43.412Z,1023.14
2019-02-04T05:01:43.369Z,1023.17
2019-02-04T05:02:43.358Z,1023.15
2019-02-04T05:03:43.301Z,1023.18
2019-02-04T05:04:43.257Z,1023.16
2019-02-04T05:05:43.218Z,1023.15
2019-02-04T05:06:43.180Z,1023.22
2019-02-04T05:07:43.166Z,1023.19
2019-02-04T05:08:43.107Z,1023.20
2019-02-04T05:09:43.068Z,1023.22
2019-02-04T05:10:43.026Z,1023.23
2019-02-04T05:11:42.991Z,1023.26
2019-02-04T05:12:43.052Z,1023.23
2019-02-04T05:13:42.911Z,1023.29
2019-02-04T05:14:42.873Z,1023.27
2019-02-04T05:15:42.843Z,1023.32
2019-02-04T05:16:42.799Z,1023.31
2019-02-04T05:17:42.784Z,1023.30
2019-02-04T05:18:42.722Z,1023.34
2019-02-04T05:19:42.687Z,1023.35
2019-02-04T05:20:42.644Z,1023.35
2019-02-04T05:21:42.610Z,1023.35
2019-02-04T05:22:42.620Z,1023.41
2019-02-04T05:23:42.533Z,1023.38
2019-02-04T05:24:42.506Z,1023.42
2019-02-04T05:25:42.455Z,1023.37
2019-02-04T05:26:42.416Z,1023.43
2019-02-04T05:27:42.378Z,1023.43
2019-02-04T05:28:42.367Z,1023.41
2019-02-04T05:29:42.302Z,1023.41
2019-02-04T05:30:42.266Z,1023.40
2019-02-04T05:31:42.225Z,1023.40
2019-02-04T05:32:42.189Z,1023.45
2019-02-04T05:33:42.171Z,1023.46
2019-02-04T05:34:42.113Z,1023.48
2019-02-04T05:35:49.108Z,1023.51
2019-02-04T05:36:42.035Z,1023.53
2019-02-04T05:37:42.083Z,1023.52
2019-02-04T05:38:41.980Z,1023.53
2019-02-04T05:39:41.918Z,1023.54
2019-02-04T05:40:41.877Z,1023.49
2019-02-04T05:41:42.983Z,1023.54
2019-02-04T05:42:41.807Z,1023.51
2019-02-04T05:43:41.788Z,1023.55
2019-02-04T05:44:41.735Z,1023.52
2019-02-04T05:45:41.777Z,1023.56
2019-02-04T05:46:42.360Z,1023.53
2019-02-04T05:47:41.615Z,1023.57
2019-02-04T05:48:49.129Z,1023.56
2019-02-04T05:49:41.543Z,1023.58
2019-02-04T05:50:41.501Z,1023.58
2019-02-04T05:51:41.460Z,1023.57
2019-02-04T05:52:41.425Z,1023.58
2019-02-04T05:53:41.405Z,1023.57
2019-02-04T05:54:41.344Z,1023.60
2019-02-04T05:55:41.303Z,1023.58
2019-02-04T05:56:41.269Z,1023.58
2019-02-04T05:57:41.232Z,1023.57
2019-02-04T05:58:41.221Z,1023.58
2019-02-04T05:59:41.153Z,1023.59
2019-02-04T06:00:41.119Z,1023.62
2019-02-04T06:01:41.076Z,1023.64
2019-02-04T06:02:41.041Z,1023.64
2019-02-04T06:03:41.761Z,1023.62
2019-02-04T06:04:41.022Z,1023.70
2019-02-04T06:05:40.923Z,1023.69
2019-02-04T06:06:40.884Z,1023.68
2019-02-04T06:07:40.852Z,1023.71
2019-02-04T06:08:41.391Z,1023.72
2019-02-04T06:09:40.787Z,1023.76
2019-02-04T06:10:40.741Z,1023.75
2019-02-04T06:11:40.695Z,1023.74
2019-02-04T06:12:40.654Z,1023.74
2019-02-04T06:13:40.646Z,1023.77
2019-02-04T06:14:40.597Z,1023.78
2019-02-04T06:15:40.550Z,1023.80
2019-02-04T06:16:40.507Z,1023.80
2019-02-04T06:17:40.471Z,1023.83
2019-02-04T06:18:40.449Z,1023.84
2019-02-04T06:19:40.385Z,1023.82
2019-02-04T06:20:40.347Z,1023.86
2019-02-04T06:21:40.312Z,1023.91
2019-02-04T06:22:40.273Z,1023.90
2019-02-04T06:23:40.258Z,1023.89
2019-02-04T06:24:40.199Z,1023.89
2019-02-04T06:25:40.158Z,1023.93
2019-02-04T06:26:40.119Z,1023.91
2019-02-04T06:27:40.081Z,1023.92
2019-02-04T06:28:40.073Z,1023.89
2019-02-04T06:29:40.002Z,1023.90
2019-02-04T06:30:39.966Z,1023.89
2019-02-04T06:31:39.933Z,1023.92
2019-02-04T06:32:39.890Z,1023.91
2019-02-04T06:33:39.875Z,1023.96
2019-02-04T06:34:39.918Z,1023.95
2019-02-04T06:35:39.774Z,1024.00
2019-02-04T06:36:39.734Z,1024.01
2019-02-04T06:37:39.698Z,1023.99
2019-02-04T06:38:39.698Z,1024.04
2019-02-04T06:39:39.625Z,1024.02
2019-02-04T06:40:39.589Z,1024.03
2019-02-04T06:41:39.544Z,1024.04
2019-02-04T06:42:39.508Z,1024.03
2019-02-04T06:43:39.472Z,1024.08
2019-02-04T06:44:39.480Z,1024.06
2019-02-04T06:45:39.393Z,1024.05
2019-02-04T06:46:39.361Z,1024.11
2019-02-04T06:47:39.321Z,1024.10
2019-02-04T06:48:39.282Z,1024.11
2019-02-04T06:49:39.401Z,1024.13
2019-02-04T06:50:39.206Z,1024.14
2019-02-04T06:51:39.167Z,1024.14
2019-02-04T06:52:39.137Z,1024.13
2019-02-04T06:53:39.092Z,1024.15
2019-02-04T06:54:39.079Z,1024.15
2019-02-04T06:55:39.018Z,1024.12
2019-02-04T06:56:38.985Z,1024.16
2019-02-04T06:57:38.942Z,1024.16
2019-02-04T06:58:38.902Z,1024.17
2019-02-04T06:59:38.894Z,1024.21
2019-02-04T07:00:38.827Z,1024.26
2019-02-04T07:01:38.818Z,1024.25
2019-02-04T07:02:38.768Z,1024.28
2019-02-04T07:03:38.833Z,1024.25
2019-02-04T07:04:38.696Z,1024.27
2019-02-04T07:05:43.743Z,1024.25
2019-02-04T07:06:38.604Z,1024.27
2019-02-04T07:07:39.367Z,1024.30
2019-02-04T07:08:38.526Z,1024.30
2019-02-04T07:09:38.521Z,1024.33
2019-02-04T07:10:39.374Z,1024.34
2019-02-04T07:11:38.419Z,1024.39
2019-02-04T07:12:38.381Z,1024.36
2019-02-04T07:13:42.207Z,1024.37
2019-02-04T07:14:38.319Z,1024.43
2019-02-04T07:15:38.259Z,1024.42
2019-02-04T07:16:38.217Z,1024.44
2019-02-04T07:17:38.183Z,1024.45
2019-02-04T07:18:38.144Z,1024.41
2019-02-04T07:19:38.162Z,1024.48
2019-02-04T07:20:38.067Z,1024.40
2019-02-04T07:21:38.858Z,1024.43
2019-02-04T07:22:37.997Z,1024.44
2019-02-04T07:23:37.959Z,1024.49
2019-02-04T07:24:42.913Z,1024.50
2019-02-04T07:25:37.877Z,1024.49
2019-02-04T07:26:37.845Z,1024.50
2019-02-04T07:27:37.854Z,1024.52
2019-02-04T07:28:37.771Z,1024.53
2019-02-04T07:29:37.767Z,1024.55
2019-02-04T07:30:37.688Z,1024.53
2019-02-04T07:31:37.660Z,1024.51
2019-02-04T07:32:37.613Z,1024.53
2019-02-04T07:33:37.591Z,1024.57
2019-02-04T07:34:37.563Z,1024.55
2019-02-04T07:35:37.500Z,1024.55
2019-02-04T07:36:37.461Z,1024.58
2019-02-04T07:37:37.463Z,1024.60
2019-02-04T07:38:37.393Z,1024.60
2019-02-04T07:39:37.373Z,1024.57
2019-02-04T07:40:37.312Z,1024.60
2019-02-04T07:41:37.291Z,1024.61
2019-02-04T07:42:37.244Z,1024.62
2019-02-04T07:43:37.199Z,1024.60
2019-02-04T07:44:37.186Z,1024.60
2019-02-04T07:45:37.125Z,1024.58
2019-02-04T07:46:37.090Z,1024.61
2019-02-04T07:47:37.052Z,1024.58
2019-02-04T07:48:37.030Z,1024.61
2019-02-04T07:49:36.979Z,1024.61
2019-02-04T07:50:36.982Z,1024.63
2019-02-04T07:51:36.900Z,1024.63
2019-02-04T07:52:36.863Z,1024.65
2019-02-04T07:53:36.823Z,1024.64
2019-02-04T07:54:36.784Z,1024.61
2019-02-04T07:55:36.783Z,1024.56
2019-02-04T07:56:36.753Z,1024.58
2019-02-04T07:57:36.730Z,1024.56
2019-02-04T07:58:36.640Z,1024.63
2019-02-04T07:59:36.598Z,1024.60
2019-02-04T08:00:36.586Z,1024.60
2019-02-04T08:01:36.523Z,1024.59
2019-02-04T08:02:36.486Z,1024.58
2019-02-04T08:03:36.457Z,1024.58
2019-02-04T08:04:36.412Z,1024.57
2019-02-04T08:05:36.397Z,1024.56
2019-02-04T08:06:36.336Z,1024.58
2019-02-04T08:07:36.300Z,1024.59
2019-02-04T08:08:36.267Z,1024.61
2019-02-04T08:09:36.226Z,1024.63
2019-02-04T08:10:36.220Z,1024.59
2019-02-04T08:11:36.151Z,1024.61
2019-02-04T08:12:36.132Z,1024.60
2019-02-04T08:13:36.078Z,1024.59
2019-02-04T08:14:36.052Z,1024.60
2019-02-04T08:15:36.029Z,1024.57
2019-02-04T08:16:35.960Z,1024.60
2019-02-04T08:17:35.930Z,1024.61
2019-02-04T08:18:35.927Z,1024.62
2019-02-04T08:19:46.473Z,1024.61
2019-02-04T08:20:35.856Z,1024.64
2019-02-04T08:21:35.901Z,1024.64
2019-02-04T08:22:35.743Z,1024.66
2019-02-04T08:23:35.702Z,1024.70
2019-02-04T08:24:35.805Z,1024.72
2019-02-04T08:25:35.717Z,1024.72
2019-02-04T08:26:35.595Z,1024.74
2019-02-04T08:27:35.555Z,1024.71
2019-02-04T08:28:35.517Z,1024.72
2019-02-04T08:29:35.482Z,1024.74
2019-02-04T08:30:38.011Z,1024.72
2019-02-04T08:31:35.409Z,1024.70
2019-02-04T08:32:35.389Z,1024.72
2019-02-04T08:33:35.334Z,1024.72
2019-02-04T08:34:35.296Z,1024.69
2019-02-04T08:35:35.280Z,1024.69
2019-02-04T08:36:43.421Z,1024.73
2019-02-04T08:37:35.198Z,1024.71
2019-02-04T08:38:35.168Z,1024.73
2019-02-04T08:39:35.111Z,1024.77
2019-02-04T08:40:35.132Z,1024.77
2019-02-04T08:41:35.065Z,1024.74
2019-02-04T08:42:35.503Z,1024.78
2019-02-04T08:43:34.962Z,1024.77
2019-02-04T08:44:34.957Z,1024.78
2019-02-04T08:45:34.910Z,1024.79
2019-02-04T08:46:34.859Z,1024.79
2019-02-04T08:47:34.823Z,1024.80
2019-02-04T08:48:34.784Z,1024.80
2019-02-04T08:49:34.748Z,1024.77
2019-02-04T08:50:34.730Z,1024.77
2019-02-04T08:51:34.675Z,1024.78
2019-02-04T08:52:34.633Z,1024.82
2019-02-04T08:53:34.597Z,1024.83
2019-02-04T08:54:34.557Z,1024.86
2019-02-04T08:55:34.562Z,1024.84
2019-02-04T08:56:34.485Z,1024.89
2019-02-04T08:57:34.450Z,1024.92
2019-02-04T08:58:34.460Z,1024.90
2019-02-04T08:59:34.465Z,1024.90
2019-02-04T09:00:34.340Z,1024.85
2019-02-04T09:01:34.348Z,1024.90
2019-02-04T09:02:34.268Z,1024.89
2019-02-04T09:03:34.229Z,1024.91
2019-02-04T09:04:36.926Z,1024.91
2019-02-04T09:05:34.159Z,1024.89
2019-02-04T09:06:34.154Z,1024.85
2019-02-04T09:07:34.089Z,1024.88
2019-02-04T09:08:34.049Z,1024.86
2019-02-04T09:09:34.017Z,1024.84
2019-02-04T09:10:33.982Z,1024.83
2019-02-04T09:11:34.003Z,1024.87
2019-02-04T09:12:33.955Z,1024.83
2019-02-04T09:13:33.867Z,1024.82
2019-02-04T09:14:33.843Z,1024.80
2019-02-04T09:15:33.793Z,1024.78
2019-02-04T09:16:33.782Z,1024.76
2019-02-04T09:17:33.722Z,1024.71
2019-02-04T09:18:44.218Z,1024.71
2019-02-04T09:19:33.645Z,1024.73
2019-02-04T09:20:33.610Z,1024.80
2019-02-04T09:21:33.597Z,1024.82
2019-02-04T09:22:33.540Z,1024.82
2019-02-04T09:23:33.510Z,1024.81
2019-02-04T09:24:33.468Z,1024.81
2019-02-04T09:25:33.451Z,1024.83
2019-02-04T09:26:33.422Z,1024.78
2019-02-04T09:27:33.363Z,1024.83
2019-02-04T09:28:33.331Z,1024.77
2019-02-04T09:29:33.289Z,1024.81
2019-02-04T09:30:33.254Z,1024.80
2019-02-04T09:31:33.237Z,1024.84
2019-02-04T09:32:33.180Z,1024.80
2019-02-04T09:33:33.143Z,1024.78
2019-02-04T09:34:33.111Z,1024.75
2019-02-04T09:35:33.075Z,1024.75
2019-02-04T09:36:33.070Z,1024.75
2019-02-04T09:37:32.998Z,1024.78
2019-02-04T09:38:32.961Z,1024.74
2019-02-04T09:39:32.930Z,1024.78
2019-02-04T09:40:32.893Z,1024.77
2019-02-04T09:41:32.926Z,1024.79
2019-02-04T09:42:32.825Z,1024.78
2019-02-04T09:43:32.797Z,1024.78
2019-02-04T09:44:32.758Z,1024.81
2019-02-04T09:45:33.789Z,1024.81
2019-02-04T09:46:32.703Z,1024.83
2019-02-04T09:47:32.645Z,1024.88
2019-02-04T09:48:32.615Z,1024.82
2019-02-04T09:49:32.578Z,1024.84
2019-02-04T09:50:32.754Z,1024.84
2019-02-04T09:51:32.534Z,1024.81
2019-02-04T09:52:32.468Z,1024.81
2019-02-04T09:53:32.429Z,1024.75
2019-02-04T09:54:32.392Z,1024.77
2019-02-04T09:55:32.356Z,1024.79
2019-02-04T09:56:32.344Z,1024.82
2019-02-04T09:57:32.285Z,1024.80
2019-02-04T09:58:32.257Z,1024.78
2019-02-04T09:59:32.217Z,1024.80
2019-02-04T10:00:32.396Z,1024.78
2019-02-04T10:01:32.171Z,1024.83
2019-02-04T10:02:32.108Z,1024.84
2019-02-04T10:03:32.075Z,1024.84
2019-02-04T10:04:32.043Z,1024.85
2019-02-04T10:05:32.006Z,1024.87
2019-02-04T10:06:31.990Z,1024.86
2019-02-04T10:07:31.929Z,1024.90
2019-02-04T10:08:31.895Z,1024.89
2019-02-04T10:09:31.861Z,1024.90
2019-02-04T10:10:31.825Z,1024.88
2019-02-04T10:11:31.796Z,1024.91
2019-02-04T10:12:31.778Z,1024.95
2019-02-04T10:13:31.717Z,1024.95
2019-02-04T10:14:31.700Z,1024.97
2019-02-04T10:15:31.651Z,1024.97
2019-02-04T10:16:31.638Z,1024.97
2019-02-04T10:17:31.636Z,1024.98
2019-02-04T10:18:31.539Z,1024.99
2019-02-04T10:19:31.554Z,1024.97
2019-02-04T10:20:34.432Z,1024.95
2019-02-04T10:21:31.458Z,1024.97
2019-02-04T10:22:31.434Z,1024.96
2019-02-04T10:23:31.427Z,1025.00
2019-02-04T10:24:31.386Z,1024.97
2019-02-04T10:25:31.319Z,1024.92
2019-02-04T10:26:31.269Z,1024.92
2019-02-04T10:27:32.320Z,1024.93
2019-02-04T10:28:31.190Z,1024.90
2019-02-04T10:29:31.163Z,1024.89
2019-02-04T10:30:31.116Z,1024.89
2019-02-04T10:31:31.085Z,1024.88
2019-02-04T10:32:31.072Z,1024.87
2019-02-04T10:33:31.040Z,1024.81
2019-02-04T10:34:30.981Z,1024.84
2019-02-04T10:35:30.968Z,1024.81
2019-02-04T10:36:30.916Z,1024.84
2019-02-04T10:37:30.903Z,1024.79
2019-02-04T10:38:30.848Z,1024.81
2019-02-04T10:39:33.285Z,1024.83
2019-02-04T10:40:30.767Z,1024.82
2019-02-04T10:41:30.758Z,1024.80
2019-02-04T10:42:30.921Z,1024.81
2019-02-04T10:43:30.692Z,1024.79
2019-02-04T10:44:30.636Z,1024.81
2019-02-04T10:45:30.694Z,1024.80
2019-02-04T10:46:30.618Z,1024.76
2019-02-04T10:47:30.548Z,1024.76
2019-02-04T10:48:30.641Z,1024.71
2019-02-04T10:49:30.459Z,1024.73
2019-02-04T10:50:30.481Z,1024.66
2019-02-04T10:51:30.424Z,1024.65
2019-02-04T10:52:30.537Z,1024.67
2019-02-04T10:53:30.352Z,1024.57
2019-02-04T10:54:30.282Z,1024.60
2019-02-04T10:55:30.259Z,1024.66
2019-02-04T10:56:30.213Z,1024.58
2019-02-04T10:58:30.141Z,1024.57
2019-02-04T10:59:30.110Z,1024.55
2019-02-04T11:00:30.107Z,1024.55
2019-02-04T11:01:30.134Z,1024.56
2019-02-04T11:02:30.028Z,1024.55
2019-02-04T11:03:29.976Z,1024.55
2019-02-04T11:04:29.960Z,1024.55
2019-02-04T11:05:29.930Z,1024.59
2019-02-04T11:06:29.891Z,1024.56
2019-02-04T11:07:29.934Z,1024.63
2019-02-04T11:08:32.709Z,1024.57
2019-02-04T11:09:29.801Z,1024.63
2019-02-04T11:10:29.736Z,1024.64
2019-02-04T11:11:29.699Z,1024.65
2019-02-04T11:12:29.687Z,1024.64
2019-02-04T11:13:29.786Z,1024.66
2019-02-04T11:14:29.628Z,1024.64
2019-02-04T11:15:29.554Z,1024.64
2019-02-04T11:16:29.585Z,1024.63
2019-02-04T11:17:29.511Z,1024.66
2019-02-04T11:18:29.500Z,1024.66
2019-02-04T11:19:29.459Z,1024.67
2019-02-04T11:20:29.387Z,1024.67
2019-02-04T11:21:29.386Z,1024.68
2019-02-04T11:22:29.340Z,1024.66
2019-02-04T11:23:29.426Z,1024.69
2019-02-04T11:24:29.246Z,1024.74
2019-02-04T11:25:29.225Z,1024.75
2019-02-04T11:26:29.205Z,1024.75
2019-02-04T11:27:29.186Z,1024.75
2019-02-04T11:28:29.919Z,1024.76
2019-02-04T11:29:29.138Z,1024.76
2019-02-04T11:30:29.041Z,1024.73
2019-02-04T11:31:29.030Z,1024.73
2019-02-04T11:32:28.967Z,1024.70
2019-02-04T11:33:28.992Z,1024.72
2019-02-04T11:34:29.029Z,1024.71
2019-02-04T11:35:28.915Z,1024.70
2019-02-04T11:36:35.903Z,1024.69
2019-02-04T11:37:28.799Z,1024.67
2019-02-04T11:38:28.797Z,1024.63
2019-02-04T11:39:28.735Z,1024.61
2019-02-04T11:40:28.735Z,1024.56
2019-02-04T11:41:28.774Z,1024.57
2019-02-04T11:42:28.697Z,1024.56
2019-02-04T11:43:28.631Z,1024.61
2019-02-04T11:44:28.561Z,1024.62
2019-02-04T11:45:28.584Z,1024.59
2019-02-04T11:46:28.499Z,1024.59
2019-02-04T11:47:28.460Z,1024.59
2019-02-04T11:48:28.463Z,1024.55
2019-02-04T11:49:28.397Z,1024.58
2019-02-04T11:50:28.357Z,1024.59
2019-02-04T11:51:28.323Z,1024.61
2019-02-04T11:52:28.284Z,1024.57
2019-02-04T11:53:32.865Z,1024.59
2019-02-04T11:54:28.222Z,1024.64
2019-02-04T11:55:28.183Z,1024.55
2019-02-04T11:56:28.143Z,1024.60
2019-02-04T11:57:28.114Z,1024.56
2019-02-04T11:58:28.449Z,1024.63
2019-02-04T11:59:28.194Z,1024.60
2019-02-04T12:00:28.013Z,1024.61
2019-02-04T12:01:27.973Z,1024.62
2019-02-04T12:02:34.585Z,1024.66
2019-02-04T12:03:27.938Z,1024.66
2019-02-04T12:04:33.815Z,1024.64
2019-02-04T12:05:27.838Z,1024.69
2019-02-04T12:06:27.807Z,1024.67